createdAt,value
2022-10-20T00:02:05.877Z,4.95
2022-10-20T00:04:32.879Z,5.60
2022-10-20T00:06:59.854Z,5.32
2022-10-20T00:09:26.766Z,4.95
2022-10-20T00:11:53.623Z,5.10
2022-10-20T00:14:20.748Z,5.60
2022-10-20T00:16:47.718Z,4.70
2022-10-20T00:19:14.614Z,5.30
2022-10-20T00:21:41.541Z,5.28
2022-10-20T00:24:08.466Z,5.82
2022-10-20T00:26:35.330Z,5.35
2022-10-20T00:29:03.800Z,5.65
2022-10-20T00:31:31.016Z,5.85
2022-10-20T00:33:58.150Z,5.47
2022-10-20T00:36:25.229Z,5.75
2022-10-20T00:38:57.887Z,5.20
2022-10-20T00:41:25.195Z,4.72
2022-10-20T00:43:57.893Z,5.55
2022-10-20T00:46:30.662Z,4.53
2022-10-20T00:49:02.970Z,4.75
2022-10-20T00:51:33.173Z,5.20
2022-10-20T00:54:13.537Z,4.75
2022-10-20T00:56:43.430Z,5.38
2022-10-20T00:59:13.654Z,5.28
2022-10-20T01:01:41.631Z,5.13
2022-10-20T01:04:09.103Z,4.90
2022-10-20T01:06:36.573Z,5.43
2022-10-20T01:09:04.381Z,5.72
2022-10-20T01:11:47.983Z,5.88
2022-10-20T01:14:52.548Z,5.50
2022-10-20T01:17:34.928Z,6.13
2022-10-20T01:20:07.894Z,4.75
2022-10-20T01:22:37.933Z,4.45
2022-10-20T01:25:29.586Z,5.20
2022-10-20T01:28:06.962Z,5.43
2022-10-20T01:30:42.548Z,5.65
2022-10-20T01:36:07.294Z,5.05
2022-10-20T01:38:44.472Z,6.38
2022-10-20T01:41:49.650Z,5.65
2022-10-20T01:44:18.721Z,5.25
2022-10-20T01:46:46.481Z,5.35
2022-10-20T01:49:14.634Z,5.43
2022-10-20T01:54:23.715Z,4.75
2022-10-20T01:57:17.810Z,5.03
2022-10-20T01:59:47.394Z,5.70
2022-10-20T02:02:26.425Z,6.28
2022-10-20T02:05:11.620Z,6.28
2022-10-20T02:07:42.008Z,5.63
2022-10-20T02:10:31.418Z,5.50
2022-10-20T02:13:05.092Z,5.00
2022-10-20T02:15:33.587Z,5.10
2022-10-20T02:18:05.578Z,5.28
2022-10-20T02:20:34.478Z,6.03
2022-10-20T02:23:04.987Z,5.38
2022-10-20T02:25:33.617Z,5.28
2022-10-20T02:28:02.477Z,5.13
2022-10-20T02:30:30.805Z,4.28
2022-10-20T02:32:57.666Z,4.28
2022-10-20T02:35:31.072Z,4.38
2022-10-20T02:37:58.893Z,4.28
2022-10-20T02:40:26.642Z,4.65
2022-10-20T02:42:53.610Z,3.83
2022-10-20T02:45:20.522Z,4.40
2022-10-20T02:47:47.531Z,4.35
2022-10-20T02:50:14.600Z,5.22
2022-10-20T02:52:42.468Z,4.28
2022-10-20T02:55:09.651Z,4.25
2022-10-20T02:57:36.734Z,3.50
2022-10-20T03:00:05.439Z,4.05
2022-10-20T03:02:32.322Z,4.97
2022-10-20T03:04:59.227Z,4.45
2022-10-20T03:07:26.096Z,5.35
2022-10-20T03:09:52.989Z,4.35
2022-10-20T03:12:19.903Z,4.32
2022-10-20T03:14:46.908Z,5.15
2022-10-20T03:17:13.829Z,4.07
2022-10-20T03:19:41.516Z,4.88
2022-10-20T03:22:08.404Z,4.60
2022-10-20T03:24:35.274Z,4.40
2022-10-20T03:27:02.116Z,4.53
2022-10-20T03:29:28.918Z,4.05
2022-10-20T03:31:55.825Z,4.00
2022-10-20T03:34:23.000Z,4.43
2022-10-20T03:36:49.842Z,4.32
2022-10-20T03:39:16.670Z,4.30
2022-10-20T03:41:43.508Z,3.60
2022-10-20T03:44:11.177Z,4.22
2022-10-20T03:46:38.057Z,4.05
2022-10-20T03:49:05.095Z,4.72
2022-10-20T03:51:31.966Z,4.30
2022-10-20T03:53:58.828Z,3.80
2022-10-20T03:56:25.709Z,3.90
2022-10-20T03:58:52.596Z,4.30
2022-10-20T04:01:21.696Z,3.97
2022-10-20T04:03:48.613Z,4.20
2022-10-20T04:06:16.022Z,3.95
2022-10-20T04:08:42.958Z,3.70
2022-10-20T04:11:09.968Z,4.57
2022-10-20T04:13:36.975Z,3.85
2022-10-20T04:16:03.991Z,4.38
2022-10-20T04:18:31.911Z,5.03
2022-10-20T04:20:59.348Z,4.63
2022-10-20T04:23:26.266Z,4.70
2022-10-20T04:25:53.106Z,4.93
2022-10-20T04:28:20.927Z,4.40
2022-10-20T04:30:48.150Z,4.35
2022-10-20T04:33:15.433Z,3.85
2022-10-20T04:35:42.355Z,4.18
2022-10-20T04:38:09.439Z,4.05
2022-10-20T04:40:36.343Z,4.25
2022-10-20T04:43:03.219Z,4.35
2022-10-20T04:45:30.115Z,3.78
2022-10-20T04:47:57.017Z,4.28
2022-10-20T04:50:23.917Z,4.28
2022-10-20T04:53:06.645Z,3.30
2022-10-20T04:55:33.703Z,4.10
2022-10-20T04:58:00.541Z,3.95
2022-10-20T05:00:27.574Z,3.15
2022-10-20T05:02:55.385Z,3.58
2022-10-20T05:05:22.221Z,3.20
2022-10-20T05:07:49.036Z,3.63
2022-10-20T05:10:15.926Z,3.35
2022-10-20T05:12:42.782Z,3.30
2022-10-20T05:15:09.893Z,2.92
2022-10-20T05:17:37.416Z,2.75
2022-10-20T05:20:04.743Z,2.50
2022-10-20T05:22:31.637Z,2.60
2022-10-20T05:25:12.688Z,2.25
2022-10-20T05:27:45.500Z,2.38
2022-10-20T05:30:12.330Z,2.20
2022-10-20T05:32:39.192Z,2.30
2022-10-20T05:35:06.533Z,2.90
2022-10-20T05:37:33.396Z,2.13
2022-10-20T05:40:03.689Z,2.47
2022-10-20T05:42:30.695Z,2.42
2022-10-20T05:44:57.581Z,1.67
2022-10-20T05:47:24.744Z,1.98
2022-10-20T05:49:51.689Z,1.80
2022-10-20T05:52:18.564Z,1.63
2022-10-20T05:54:45.467Z,1.88
2022-10-20T05:57:12.309Z,1.48
2022-10-20T05:59:39.313Z,2.17
2022-10-20T06:02:06.675Z,1.70
2022-10-20T06:04:33.758Z,1.90
2022-10-20T06:07:00.670Z,1.45
2022-10-20T06:09:27.561Z,1.30
2022-10-20T06:11:54.991Z,1.00
2022-10-20T06:14:22.628Z,1.30
2022-10-20T06:16:53.905Z,0.93
2022-10-20T06:19:20.840Z,1.20
2022-10-20T06:21:49.295Z,1.10
2022-10-20T06:24:17.251Z,1.13
2022-10-20T06:26:44.173Z,1.00
2022-10-20T06:29:14.538Z,1.33
2022-10-20T06:31:44.914Z,1.27
2022-10-20T06:34:18.271Z,1.25
2022-10-20T06:36:45.658Z,0.98
2022-10-20T06:39:15.767Z,1.23
2022-10-20T06:41:42.826Z,1.02
2022-10-20T06:44:19.398Z,1.10
2022-10-20T06:46:46.769Z,1.08
2022-10-20T06:49:14.191Z,1.30
2022-10-20T06:51:41.517Z,1.20
2022-10-20T06:54:09.412Z,1.02
2022-10-20T06:56:37.372Z,1.20
2022-10-20T06:59:04.304Z,1.10
2022-10-20T07:01:33.954Z,0.98
2022-10-20T07:04:06.288Z,1.10
2022-10-20T07:06:36.374Z,1.17
2022-10-20T07:09:05.159Z,1.10
2022-10-20T07:11:32.769Z,1.10
2022-10-20T07:14:00.663Z,1.00
2022-10-20T07:16:30.751Z,1.08
2022-10-20T07:18:57.859Z,1.08
2022-10-20T07:21:32.270Z,1.00
2022-10-20T07:24:04.484Z,0.90
2022-10-20T07:26:33.793Z,0.80
2022-10-20T07:29:03.022Z,1.08
2022-10-20T07:31:33.039Z,1.30
2022-10-20T07:34:12.846Z,1.00
2022-10-20T07:36:47.567Z,1.30
2022-10-20T07:39:14.469Z,1.20
2022-10-20T07:41:44.159Z,0.95
2022-10-20T07:44:11.354Z,1.00
2022-10-20T07:46:38.214Z,0.88
2022-10-20T07:51:52.123Z,1.85
2022-10-20T07:54:19.098Z,0.95
2022-10-20T07:56:46.522Z,0.95
2022-10-20T07:59:14.152Z,1.10
2022-10-20T08:01:41.922Z,1.30
2022-10-20T08:04:08.893Z,1.65
2022-10-20T08:06:35.765Z,0.70
2022-10-20T08:09:02.781Z,0.70
2022-10-20T08:11:29.881Z,1.05
2022-10-20T08:13:56.748Z,1.20
2022-10-20T08:16:30.527Z,1.15
2022-10-20T08:19:02.971Z,1.23
2022-10-20T08:21:30.041Z,0.90
2022-10-20T08:23:57.014Z,1.10
2022-10-20T08:26:25.971Z,0.80
2022-10-20T08:28:54.830Z,0.70
2022-10-20T08:31:23.306Z,0.80
2022-10-20T08:33:52.955Z,1.08
2022-10-20T08:36:21.143Z,1.05
2022-10-20T08:38:48.269Z,0.90
2022-10-20T08:41:25.681Z,0.60
2022-10-20T08:43:55.304Z,0.77
2022-10-20T08:46:29.069Z,0.65
2022-10-20T08:48:56.581Z,0.70
2022-10-20T08:51:34.781Z,1.00
2022-10-20T08:54:02.802Z,0.80
2022-10-20T08:56:31.209Z,1.10
2022-10-20T08:58:58.213Z,0.90
2022-10-20T09:01:29.351Z,0.77
2022-10-20T09:04:20.201Z,1.05
2022-10-20T09:06:53.688Z,0.80
2022-10-20T09:09:23.155Z,1.02
2022-10-20T09:11:51.272Z,0.65
2022-10-20T09:14:18.235Z,0.63
2022-10-20T09:16:59.688Z,1.00
2022-10-20T09:19:28.572Z,0.80
2022-10-20T09:21:58.470Z,1.08
2022-10-20T09:24:30.114Z,0.90
2022-10-20T09:27:15.955Z,1.23
2022-10-20T09:29:42.909Z,0.90
2022-10-20T09:32:45.929Z,1.33
2022-10-20T09:35:30.112Z,0.75
2022-10-20T09:38:02.203Z,0.77
2022-10-20T09:40:29.874Z,1.17
2022-10-20T09:43:11.056Z,0.80
2022-10-20T10:17:12.006Z,1.20
2022-10-20T10:19:38.841Z,0.95
2022-10-20T10:22:05.792Z,1.15
2022-10-20T10:24:42.759Z,1.13
2022-10-20T10:27:36.745Z,1.10
2022-10-20T10:30:37.333Z,1.20
2022-10-20T10:33:27.742Z,1.13
2022-10-20T10:35:55.125Z,1.70
2022-10-20T10:38:22.414Z,1.52
2022-10-20T10:41:16.174Z,1.25
2022-10-20T10:44:07.092Z,1.27
2022-10-20T10:49:27.912Z,0.70
2022-10-20T10:51:57.710Z,0.90
2022-10-20T10:54:39.482Z,1.23
2022-10-20T10:57:18.295Z,1.02
2022-10-20T10:59:49.842Z,0.98
2022-10-20T11:02:54.114Z,1.30
2022-10-20T11:05:46.844Z,1.25
2022-10-20T11:08:31.960Z,1.13
2022-10-20T11:11:07.530Z,1.30
2022-10-20T11:13:45.485Z,0.90
2022-10-20T11:16:15.406Z,1.00
2022-10-20T11:19:17.146Z,0.80
2022-10-20T11:22:28.571Z,0.98
2022-10-20T11:25:12.334Z,2.10
2022-10-20T11:27:39.512Z,1.23
2022-10-20T11:30:22.271Z,0.82
2022-10-20T11:33:06.315Z,0.88
2022-10-20T11:35:49.655Z,1.20
2022-10-20T11:38:31.473Z,1.08
2022-10-20T11:41:19.218Z,1.15
2022-10-20T11:44:27.533Z,1.20
2022-10-20T11:47:08.086Z,1.35
2022-10-20T11:49:35.253Z,0.95
2022-10-20T11:52:29.170Z,0.95
2022-10-20T11:55:17.318Z,0.90
2022-10-20T11:57:57.695Z,0.90
2022-10-20T12:00:38.156Z,1.40
2022-10-20T12:03:38.051Z,1.23
2022-10-20T12:06:19.711Z,1.52
2022-10-20T12:09:23.933Z,1.40
2022-10-20T12:11:57.494Z,1.00
2022-10-20T12:14:33.770Z,0.98
2022-10-20T12:17:27.142Z,1.30
2022-10-20T12:20:23.085Z,1.30
2022-10-20T12:22:55.333Z,0.90
2022-10-20T12:25:24.921Z,4.03
2022-10-20T12:28:22.948Z,1.10
2022-10-20T12:31:02.912Z,1.05
2022-10-20T12:33:59.339Z,0.88
2022-10-20T12:36:33.669Z,1.30
2022-10-20T12:39:29.679Z,1.20
2022-10-20T12:42:01.098Z,1.17
2022-10-20T12:44:32.413Z,1.00
2022-10-20T12:47:07.696Z,1.00
2022-10-20T12:49:43.196Z,1.20
2022-10-20T12:52:21.264Z,1.40
2022-10-20T12:54:55.540Z,1.13
2022-10-20T12:57:45.275Z,0.88
2022-10-20T13:00:23.606Z,1.27
2022-10-20T13:02:51.273Z,1.35
2022-10-20T13:05:44.633Z,1.00
2022-10-20T13:08:23.458Z,1.10
2022-10-20T13:10:50.918Z,1.20
2022-10-20T13:13:20.663Z,0.77
2022-10-20T13:15:51.673Z,1.23
2022-10-20T13:18:47.120Z,0.70
2022-10-20T13:21:32.814Z,0.80
2022-10-20T13:24:04.421Z,0.95
2022-10-20T13:26:51.613Z,1.13
2022-10-20T13:29:43.981Z,1.10
2022-10-20T13:32:16.863Z,1.00
2022-10-20T13:34:52.323Z,1.13
2022-10-20T13:37:55.246Z,0.98
2022-10-20T13:40:51.488Z,0.93
2022-10-20T13:43:29.996Z,1.92
2022-10-20T13:46:25.248Z,1.98
2022-10-20T13:49:15.526Z,0.80
2022-10-20T13:51:52.488Z,0.80
2022-10-20T13:54:44.878Z,1.00
2022-10-20T13:57:32.685Z,0.90
2022-10-20T14:00:17.554Z,0.85
2022-10-20T14:03:01.707Z,0.93
2022-10-20T14:05:36.100Z,2.17
2022-10-20T14:08:08.855Z,0.88
2022-10-20T14:10:38.836Z,1.13
2022-10-20T14:13:10.804Z,0.90
2022-10-20T14:15:38.113Z,1.20
2022-10-20T14:18:08.614Z,1.10
2022-10-20T14:20:42.019Z,0.98
2022-10-20T14:23:11.082Z,1.00
2022-10-20T14:25:38.837Z,1.20
2022-10-20T14:28:07.581Z,1.35
2022-10-20T14:30:38.695Z,1.20
2022-10-20T14:33:14.923Z,0.80
2022-10-20T14:35:50.502Z,0.90
2022-10-20T14:38:29.811Z,1.08
2022-10-20T14:40:58.469Z,1.50
2022-10-20T14:43:39.143Z,1.05
2022-10-20T14:46:09.084Z,1.02
2022-10-20T14:48:44.681Z,1.25
2022-10-20T14:51:45.103Z,1.30
2022-10-20T14:54:21.244Z,1.20
2022-10-20T14:57:19.247Z,1.00
2022-10-20T14:59:59.140Z,1.15
2022-10-20T15:02:29.484Z,1.00
2022-10-20T15:04:56.643Z,1.17
2022-10-20T15:07:28.452Z,1.08
2022-10-20T15:10:06.235Z,1.05
2022-10-20T15:12:42.711Z,1.10
2022-10-20T15:15:12.600Z,1.20
2022-10-20T15:17:43.964Z,0.90
2022-10-20T15:20:34.588Z,1.10
2022-10-20T15:23:22.854Z,1.15
2022-10-20T15:25:54.767Z,1.00
2022-10-20T15:28:45.896Z,1.20
2022-10-20T15:31:12.795Z,1.35
2022-10-20T15:33:42.891Z,1.20
2022-10-20T15:36:28.361Z,0.82
2022-10-20T15:38:56.567Z,1.17
2022-10-20T15:41:28.539Z,1.35
2022-10-20T15:43:55.543Z,0.73
2022-10-20T15:46:23.089Z,1.10
2022-10-20T15:48:50.132Z,1.13
2022-10-20T15:51:17.100Z,1.30
2022-10-20T15:53:46.132Z,0.93
2022-10-20T15:56:13.004Z,4.32
2022-10-20T15:58:40.129Z,1.55
2022-10-20T16:01:07.860Z,1.10
2022-10-20T16:03:35.872Z,1.25
2022-10-20T16:06:02.734Z,0.98
2022-10-20T16:08:29.813Z,1.02
2022-10-20T16:10:57.519Z,0.93
2022-10-20T16:13:24.467Z,0.93
2022-10-20T16:15:51.451Z,1.00
2022-10-20T16:18:18.298Z,1.45
2022-10-20T16:20:45.226Z,1.58
2022-10-20T16:23:12.219Z,1.08
2022-10-20T16:25:40.801Z,1.17
2022-10-20T16:28:07.909Z,1.65
2022-10-20T16:30:34.970Z,1.67
2022-10-20T16:33:02.043Z,1.20
2022-10-20T16:35:28.965Z,1.52
2022-10-20T16:37:56.184Z,1.20
2022-10-20T16:40:23.419Z,1.20
2022-10-20T16:42:50.286Z,1.92
2022-10-20T16:45:17.387Z,1.23
2022-10-20T16:47:44.347Z,1.20
2022-10-20T16:50:11.412Z,1.40
2022-10-20T16:52:38.485Z,1.25
2022-10-20T16:55:05.770Z,2.50
2022-10-20T16:57:38.977Z,1.60
2022-10-20T17:00:09.033Z,1.17
2022-10-20T17:02:36.685Z,1.10
2022-10-20T17:05:06.800Z,1.30
2022-10-20T17:07:36.613Z,0.80
2022-10-20T17:10:03.852Z,1.25
2022-10-20T17:12:30.771Z,1.02
2022-10-20T17:14:57.648Z,1.15
2022-10-20T17:17:24.616Z,1.00
2022-10-20T17:19:51.579Z,0.95
2022-10-20T17:22:19.968Z,1.42
2022-10-20T17:24:46.817Z,1.08
2022-10-20T17:27:13.719Z,1.08
2022-10-20T17:29:40.749Z,1.10
2022-10-20T17:32:07.622Z,1.20
2022-10-20T17:34:34.767Z,1.33
2022-10-20T17:37:01.701Z,1.20
2022-10-20T17:39:28.709Z,1.20
2022-10-20T17:41:55.910Z,1.10
2022-10-20T17:44:22.816Z,1.50
2022-10-20T17:46:49.682Z,1.45
2022-10-20T17:49:16.621Z,1.55
2022-10-20T17:51:44.309Z,1.05
2022-10-20T17:54:11.200Z,1.60
2022-10-20T17:56:40.265Z,1.10
2022-10-20T17:59:08.941Z,1.08
2022-10-20T18:01:39.010Z,1.40
2022-10-20T18:04:08.657Z,1.45
2022-10-20T18:06:36.805Z,1.40
2022-10-20T18:09:12.503Z,1.25
2022-10-20T18:11:43.964Z,1.45
2022-10-20T18:14:10.957Z,0.98
2022-10-20T18:16:39.673Z,1.40
2022-10-20T18:19:08.103Z,1.42
2022-10-20T18:21:35.022Z,1.63
2022-10-20T18:24:07.491Z,1.67
2022-10-20T18:26:36.893Z,1.75
2022-10-20T18:29:06.120Z,1.45
2022-10-20T18:31:35.196Z,1.98
2022-10-20T18:34:06.946Z,1.40
2022-10-20T18:36:39.107Z,1.23
2022-10-20T18:39:09.895Z,1.38
2022-10-20T18:41:39.857Z,1.25
2022-10-20T18:44:10.165Z,1.40
2022-10-20T18:46:37.764Z,1.30
2022-10-20T18:49:07.131Z,1.88
2022-10-20T18:51:36.021Z,1.80
2022-10-20T18:54:04.973Z,1.15
2022-10-20T18:56:32.136Z,1.13
2022-10-20T18:59:01.873Z,1.13
2022-10-20T19:01:31.317Z,1.48
2022-10-20T19:03:59.620Z,1.70
2022-10-20T19:06:29.615Z,1.40
2022-10-20T19:08:59.713Z,1.63
2022-10-20T19:11:29.480Z,1.50
2022-10-20T19:13:57.673Z,1.60
2022-10-20T19:16:30.514Z,1.50
2022-10-20T19:18:59.434Z,1.45
2022-10-20T19:21:28.316Z,1.25
2022-10-20T19:24:07.512Z,1.33
2022-10-20T19:26:43.691Z,1.40
2022-10-20T19:29:14.402Z,1.30
2022-10-20T19:31:46.166Z,1.45
2022-10-20T19:34:25.548Z,1.45
2022-10-20T19:36:53.121Z,1.58
2022-10-20T19:39:27.303Z,1.10
2022-10-20T19:41:56.707Z,1.30
2022-10-20T19:44:23.935Z,1.55
2022-10-20T19:46:52.155Z,1.75
2022-10-20T19:49:20.402Z,1.30
2022-10-20T19:51:47.522Z,1.48
2022-10-20T19:54:14.951Z,1.30
2022-10-20T19:56:42.232Z,1.60
2022-10-20T19:59:09.893Z,1.50
2022-10-20T20:01:37.670Z,1.33
2022-10-20T20:04:05.596Z,1.75
2022-10-20T20:06:34.287Z,2.47
2022-10-20T20:09:04.260Z,1.10
2022-10-20T20:11:31.321Z,1.90
2022-10-20T20:14:00.878Z,1.27
2022-10-20T20:16:29.217Z,1.92
2022-10-20T20:18:56.314Z,2.30
2022-10-20T20:21:23.953Z,2.42
2022-10-20T20:23:59.201Z,2.55
2022-10-20T20:26:27.718Z,1.90
2022-10-20T20:28:55.982Z,1.83
2022-10-20T20:31:23.386Z,1.30
2022-10-20T20:33:50.853Z,1.30
2022-10-20T20:36:17.751Z,1.65
2022-10-20T20:38:44.819Z,1.30
2022-10-20T20:41:17.271Z,1.23
2022-10-20T20:43:47.555Z,1.30
2022-10-20T20:46:16.836Z,1.60
2022-10-20T20:48:44.277Z,1.35
2022-10-20T20:51:11.963Z,1.70
2022-10-20T20:53:39.917Z,2.25
2022-10-20T20:56:10.062Z,1.30
2022-10-20T20:58:37.433Z,1.60
2022-10-20T21:01:13.761Z,1.40
2022-10-20T21:03:40.899Z,1.52
2022-10-20T21:06:13.755Z,1.65
2022-10-20T21:08:43.282Z,1.20
2022-10-20T21:11:18.468Z,1.50
2022-10-20T21:13:46.807Z,1.10
2022-10-20T21:16:20.776Z,1.35
2022-10-20T21:18:49.611Z,1.80
2022-10-20T21:21:24.632Z,1.58
2022-10-20T21:23:52.172Z,1.67
2022-10-20T21:26:20.766Z,1.42
2022-10-20T21:28:48.156Z,1.48
2022-10-20T21:31:18.262Z,1.55
2022-10-20T21:33:46.448Z,1.55
2022-10-20T21:36:16.070Z,1.88
2022-10-20T21:38:43.978Z,1.60
2022-10-20T21:41:16.413Z,1.60
2022-10-20T21:43:48.085Z,2.15
2022-10-20T21:46:21.208Z,1.45
2022-10-20T21:48:50.119Z,1.83
2022-10-20T21:51:26.638Z,2.05
2022-10-20T21:54:02.141Z,1.77
2022-10-20T21:56:29.556Z,1.48
2022-10-20T21:58:56.598Z,1.40
2022-10-20T22:01:25.206Z,1.65
2022-10-20T22:03:53.753Z,1.40
2022-10-20T22:06:23.047Z,2.17
2022-10-20T22:08:52.035Z,1.52
2022-10-20T22:11:22.702Z,1.52
2022-10-20T22:13:50.202Z,1.30
2022-10-20T22:16:20.699Z,1.35
2022-10-20T22:18:47.675Z,1.83
2022-10-20T22:21:17.454Z,1.70
2022-10-20T22:23:45.470Z,1.48
2022-10-20T22:26:13.460Z,1.40
2022-10-20T22:28:41.053Z,1.70
2022-10-20T22:31:08.120Z,1.60
2022-10-20T22:33:35.464Z,1.50
2022-10-20T22:36:03.814Z,1.90
2022-10-20T22:38:30.860Z,1.65
2022-10-20T22:40:59.261Z,1.40
2022-10-20T22:43:27.384Z,1.77
2022-10-20T22:45:54.446Z,1.55
2022-10-20T22:48:21.670Z,1.70
2022-10-20T22:50:48.841Z,1.30
2022-10-20T22:53:15.881Z,1.67
2022-10-20T22:55:42.804Z,1.27
2022-10-20T22:58:10.038Z,1.33
2022-10-20T23:00:40.101Z,1.65
2022-10-20T23:03:07.268Z,1.33
2022-10-20T23:05:34.194Z,1.20
2022-10-20T23:08:01.117Z,1.70
2022-10-20T23:10:28.288Z,1.35
2022-10-20T23:12:55.143Z,1.30
2022-10-20T23:15:22.012Z,1.25
2022-10-20T23:17:48.910Z,2.03
2022-10-20T23:20:15.980Z,1.15
2022-10-20T23:22:42.876Z,1.25
2022-10-20T23:25:10.015Z,1.73
2022-10-20T23:27:37.352Z,1.10
2022-10-20T23:30:04.815Z,1.60
2022-10-20T23:32:31.740Z,1.23
2022-10-20T23:34:58.736Z,1.55
2022-10-20T23:37:25.583Z,1.33
2022-10-20T23:39:52.450Z,1.15
2022-10-20T23:42:19.278Z,1.27
2022-10-20T23:44:46.179Z,0.98
2022-10-20T23:47:13.039Z,1.50
2022-10-20T23:49:39.895Z,1.20
2022-10-20T23:52:06.722Z,1.25
2022-10-20T23:54:33.645Z,1.23
2022-10-20T23:57:00.548Z,0.90
2022-10-20T23:59:27.374Z,0.80
